sensor_id;sensor_type;location;lat;lon;timestamp;P1;durP1;ratioP1;P2;durP2;ratioP2
52984;SDS011;40499;47.830;19.026;2022-12-20T00:00:11;61.63;;;21.77;;
52984;SDS011;40499;47.830;19.026;2022-12-20T00:02:37;60.75;;;25.05;;
52984;SDS011;40499;47.830;19.026;2022-12-20T00:05:02;56.85;;;22.50;;
52984;SDS011;40499;47.830;19.026;2022-12-20T00:07:27;62.83;;;23.52;;
52984;SDS011;40499;47.830;19.026;2022-12-20T00:09:53;61.75;;;24.27;;
52984;SDS011;40499;47.830;19.026;2022-12-20T00:12:18;64.88;;;25.63;;
52984;SDS011;40499;47.830;19.026;2022-12-20T00:14:43;65.60;;;26.02;;
52984;SDS011;40499;47.830;19.026;2022-12-20T00:17:08;66.22;;;23.50;;
52984;SDS011;40499;47.830;19.026;2022-12-20T00:19:34;59.60;;;23.90;;
52984;SDS011;40499;47.830;19.026;2022-12-20T00:21:59;60.03;;;24.50;;
52984;SDS011;40499;47.830;19.026;2022-12-20T00:24:24;63.65;;;25.08;;
52984;SDS011;40499;47.830;19.026;2022-12-20T00:26:49;65.40;;;23.35;;
52984;SDS011;40499;47.830;19.026;2022-12-20T00:29:15;55.65;;;22.33;;
52984;SDS011;40499;47.830;19.026;2022-12-20T00:31:40;59.50;;;24.20;;
52984;SDS011;40499;47.830;19.026;2022-12-20T00:34:05;58.03;;;24.55;;
52984;SDS011;40499;47.830;19.026;2022-12-20T00:36:31;61.58;;;24.40;;
52984;SDS011;40499;47.830;19.026;2022-12-20T00:38:56;62.08;;;24.63;;
52984;SDS011;40499;47.830;19.026;2022-12-20T00:41:23;59.97;;;24.00;;
52984;SDS011;40499;47.830;19.026;2022-12-20T00:43:49;61.45;;;25.67;;
52984;SDS011;40499;47.830;19.026;2022-12-20T00:46:15;69.57;;;24.40;;
52984;SDS011;40499;47.830;19.026;2022-12-20T00:48:41;61.05;;;24.80;;
52984;SDS011;40499;47.830;19.026;2022-12-20T00:51:08;56.30;;;23.60;;
52984;SDS011;40499;47.830;19.026;2022-12-20T00:53:33;59.28;;;23.45;;
52984;SDS011;40499;47.830;19.026;2022-12-20T00:55:59;65.40;;;24.33;;
52984;SDS011;40499;47.830;19.026;2022-12-20T00:58:25;63.90;;;24.63;;
52984;SDS011;40499;47.830;19.026;2022-12-20T01:00:50;63.92;;;25.65;;
52984;SDS011;40499;47.830;19.026;2022-12-20T01:03:15;55.80;;;23.27;;
52984;SDS011;40499;47.830;19.026;2022-12-20T01:05:48;53.15;;;22.35;;
52984;SDS011;40499;47.830;19.026;2022-12-20T01:08:14;61.40;;;22.73;;
52984;SDS011;40499;47.830;19.026;2022-12-20T01:10:39;58.83;;;23.58;;
52984;SDS011;40499;47.830;19.026;2022-12-20T01:13:04;64.00;;;23.67;;
52984;SDS011;40499;47.830;19.026;2022-12-20T01:15:29;62.13;;;23.73;;
52984;SDS011;40499;47.830;19.026;2022-12-20T01:17:55;66.25;;;24.20;;
52984;SDS011;40499;47.830;19.026;2022-12-20T01:20:21;60.33;;;23.05;;
52984;SDS011;40499;47.830;19.026;2022-12-20T01:22:47;68.68;;;26.42;;
52984;SDS011;40499;47.830;19.026;2022-12-20T01:25:12;60.92;;;24.95;;
52984;SDS011;40499;47.830;19.026;2022-12-20T01:27:37;62.80;;;24.10;;
52984;SDS011;40499;47.830;19.026;2022-12-20T01:30:02;64.60;;;24.38;;
52984;SDS011;40499;47.830;19.026;2022-12-20T01:32:28;57.70;;;21.52;;
52984;SDS011;40499;47.830;19.026;2022-12-20T01:34:53;67.68;;;24.88;;
52984;SDS011;40499;47.830;19.026;2022-12-20T01:37:18;57.78;;;23.83;;
52984;SDS011;40499;47.830;19.026;2022-12-20T01:39:43;67.85;;;24.20;;
52984;SDS011;40499;47.830;19.026;2022-12-20T01:42:12;59.15;;;23.13;;
52984;SDS011;40499;47.830;19.026;2022-12-20T01:47:06;72.45;;;25.38;;
52984;SDS011;40499;47.830;19.026;2022-12-20T01:49:53;58.67;;;23.55;;
52984;SDS011;40499;47.830;19.026;2022-12-20T01:52:18;59.42;;;23.27;;
52984;SDS011;40499;47.830;19.026;2022-12-20T01:57:12;65.53;;;23.37;;
52984;SDS011;40499;47.830;19.026;2022-12-20T01:59:39;61.63;;;22.67;;
52984;SDS011;40499;47.830;19.026;2022-12-20T02:02:05;63.53;;;24.83;;
52984;SDS011;40499;47.830;19.026;2022-12-20T02:04:32;61.53;;;24.77;;
52984;SDS011;40499;47.830;19.026;2022-12-20T02:06:57;63.95;;;24.90;;
52984;SDS011;40499;47.830;19.026;2022-12-20T02:09:23;71.60;;;25.17;;
52984;SDS011;40499;47.830;19.026;2022-12-20T02:17:09;66.63;;;24.48;;
52984;SDS011;40499;47.830;19.026;2022-12-20T02:19:52;64.07;;;23.92;;
52984;SDS011;40499;47.830;19.026;2022-12-20T02:22:34;62.95;;;25.65;;
52984;SDS011;40499;47.830;19.026;2022-12-20T02:27:51;60.28;;;23.75;;
52984;SDS011;40499;47.830;19.026;2022-12-20T02:30:19;62.60;;;24.42;;
52984;SDS011;40499;47.830;19.026;2022-12-20T02:32:47;63.45;;;24.77;;
52984;SDS011;40499;47.830;19.026;2022-12-20T02:35:14;64.97;;;23.83;;
52984;SDS011;40499;47.830;19.026;2022-12-20T02:37:52;65.68;;;25.20;;
52984;SDS011;40499;47.830;19.026;2022-12-20T02:40:18;63.15;;;23.98;;
52984;SDS011;40499;47.830;19.026;2022-12-20T02:42:45;59.88;;;23.95;;
52984;SDS011;40499;47.830;19.026;2022-12-20T02:45:11;63.47;;;23.85;;
52984;SDS011;40499;47.830;19.026;2022-12-20T02:47:45;59.42;;;22.75;;
52984;SDS011;40499;47.830;19.026;2022-12-20T02:50:12;55.63;;;22.23;;
52984;SDS011;40499;47.830;19.026;2022-12-20T02:52:38;54.25;;;21.48;;
52984;SDS011;40499;47.830;19.026;2022-12-20T02:55:04;59.88;;;22.08;;
52984;SDS011;40499;47.830;19.026;2022-12-20T02:57:36;56.55;;;23.02;;
52984;SDS011;40499;47.830;19.026;2022-12-20T03:00:04;62.30;;;22.30;;
52984;SDS011;40499;47.830;19.026;2022-12-20T03:02:30;62.08;;;23.35;;
52984;SDS011;40499;47.830;19.026;2022-12-20T03:05:19;58.35;;;21.67;;
52984;SDS011;40499;47.830;19.026;2022-12-20T03:07:46;58.03;;;22.33;;
52984;SDS011;40499;47.830;19.026;2022-12-20T03:10:11;54.08;;;21.63;;
52984;SDS011;40499;47.830;19.026;2022-12-20T03:12:36;54.78;;;21.10;;
52984;SDS011;40499;47.830;19.026;2022-12-20T03:15:02;62.90;;;23.42;;
52984;SDS011;40499;47.830;19.026;2022-12-20T03:17:27;62.00;;;22.10;;
52984;SDS011;40499;47.830;19.026;2022-12-20T03:19:52;53.80;;;20.75;;
52984;SDS011;40499;47.830;19.026;2022-12-20T03:22:17;57.88;;;20.48;;
52984;SDS011;40499;47.830;19.026;2022-12-20T03:24:43;54.72;;;20.13;;
52984;SDS011;40499;47.830;19.026;2022-12-20T03:27:08;51.60;;;20.77;;
52984;SDS011;40499;47.830;19.026;2022-12-20T03:29:33;53.40;;;21.42;;
52984;SDS011;40499;47.830;19.026;2022-12-20T03:31:58;47.92;;;18.08;;
52984;SDS011;40499;47.830;19.026;2022-12-20T03:34:24;56.55;;;22.45;;
52984;SDS011;40499;47.830;19.026;2022-12-20T03:36:49;58.55;;;22.33;;
52984;SDS011;40499;47.830;19.026;2022-12-20T03:39:14;52.13;;;20.55;;
52984;SDS011;40499;47.830;19.026;2022-12-20T03:41:40;56.90;;;20.05;;
52984;SDS011;40499;47.830;19.026;2022-12-20T03:44:05;50.63;;;20.20;;
52984;SDS011;40499;47.830;19.026;2022-12-20T03:46:30;58.15;;;21.88;;
52984;SDS011;40499;47.830;19.026;2022-12-20T03:48:55;57.72;;;21.50;;
52984;SDS011;40499;47.830;19.026;2022-12-20T03:51:21;47.58;;;20.67;;
52984;SDS011;40499;47.830;19.026;2022-12-20T03:53:46;49.92;;;20.15;;
52984;SDS011;40499;47.830;19.026;2022-12-20T03:56:11;49.05;;;20.80;;
52984;SDS011;40499;47.830;19.026;2022-12-20T03:58:37;55.03;;;20.85;;
52984;SDS011;40499;47.830;19.026;2022-12-20T04:01:15;52.15;;;21.52;;
52984;SDS011;40499;47.830;19.026;2022-12-20T04:03:40;49.30;;;20.20;;
52984;SDS011;40499;47.830;19.026;2022-12-20T04:06:05;49.58;;;19.25;;
52984;SDS011;40499;47.830;19.026;2022-12-20T04:08:31;49.38;;;19.48;;
52984;SDS011;40499;47.830;19.026;2022-12-20T04:10:56;43.97;;;19.30;;
52984;SDS011;40499;47.830;19.026;2022-12-20T04:13:45;45.22;;;19.17;;
52984;SDS011;40499;47.830;19.026;2022-12-20T04:16:12;46.17;;;18.52;;
52984;SDS011;40499;47.830;19.026;2022-12-20T04:18:37;51.22;;;19.60;;
52984;SDS011;40499;47.830;19.026;2022-12-20T04:21:03;40.00;;;17.48;;
52984;SDS011;40499;47.830;19.026;2022-12-20T04:23:28;43.03;;;18.60;;
52984;SDS011;40499;47.830;19.026;2022-12-20T04:25:53;45.45;;;17.35;;
52984;SDS011;40499;47.830;19.026;2022-12-20T04:28:18;46.75;;;18.83;;
52984;SDS011;40499;47.830;19.026;2022-12-20T04:30:44;44.38;;;17.50;;
52984;SDS011;40499;47.830;19.026;2022-12-20T04:33:09;50.83;;;18.85;;
52984;SDS011;40499;47.830;19.026;2022-12-20T04:35:35;51.65;;;18.85;;
52984;SDS011;40499;47.830;19.026;2022-12-20T04:38:01;48.70;;;19.08;;
52984;SDS011;40499;47.830;19.026;2022-12-20T04:40:26;44.80;;;18.17;;
52984;SDS011;40499;47.830;19.026;2022-12-20T04:42:51;42.15;;;15.48;;
52984;SDS011;40499;47.830;19.026;2022-12-20T04:45:17;51.05;;;18.63;;
52984;SDS011;40499;47.830;19.026;2022-12-20T04:47:42;45.42;;;17.42;;
52984;SDS011;40499;47.830;19.026;2022-12-20T04:50:07;48.20;;;18.40;;
52984;SDS011;40499;47.830;19.026;2022-12-20T04:52:33;39.22;;;16.70;;
52984;SDS011;40499;47.830;19.026;2022-12-20T04:55:17;47.83;;;19.00;;
52984;SDS011;40499;47.830;19.026;2022-12-20T04:57:42;40.97;;;15.70;;
52984;SDS011;40499;47.830;19.026;2022-12-20T05:00:07;41.42;;;16.95;;
52984;SDS011;40499;47.830;19.026;2022-12-20T05:02:33;42.95;;;16.85;;
52984;SDS011;40499;47.830;19.026;2022-12-20T05:04:58;46.70;;;17.42;;
52984;SDS011;40499;47.830;19.026;2022-12-20T05:07:23;42.97;;;16.48;;
52984;SDS011;40499;47.830;19.026;2022-12-20T05:09:48;49.15;;;17.77;;
52984;SDS011;40499;47.830;19.026;2022-12-20T05:12:14;41.15;;;17.42;;
52984;SDS011;40499;47.830;19.026;2022-12-20T05:14:39;44.28;;;18.42;;
52984;SDS011;40499;47.830;19.026;2022-12-20T05:17:04;35.97;;;13.55;;
52984;SDS011;40499;47.830;19.026;2022-12-20T05:19:29;44.20;;;18.45;;
52984;SDS011;40499;47.830;19.026;2022-12-20T05:21:54;45.70;;;17.08;;
52984;SDS011;40499;47.830;19.026;2022-12-20T05:24:40;35.50;;;16.02;;
52984;SDS011;40499;47.830;19.026;2022-12-20T05:27:23;47.80;;;19.58;;
52984;SDS011;40499;47.830;19.026;2022-12-20T05:29:49;43.88;;;18.13;;
52984;SDS011;40499;47.830;19.026;2022-12-20T05:32:14;39.83;;;16.20;;
52984;SDS011;40499;47.830;19.026;2022-12-20T05:34:39;42.75;;;18.05;;
52984;SDS011;40499;47.830;19.026;2022-12-20T05:37:05;44.72;;;17.60;;
52984;SDS011;40499;47.830;19.026;2022-12-20T05:39:30;40.88;;;18.45;;
52984;SDS011;40499;47.830;19.026;2022-12-20T05:41:56;44.50;;;18.40;;
52984;SDS011;40499;47.830;19.026;2022-12-20T05:44:23;46.55;;;18.65;;
52984;SDS011;40499;47.830;19.026;2022-12-20T05:46:48;45.67;;;17.83;;
52984;SDS011;40499;47.830;19.026;2022-12-20T05:49:14;48.38;;;18.13;;
52984;SDS011;40499;47.830;19.026;2022-12-20T05:51:39;47.30;;;18.55;;
52984;SDS011;40499;47.830;19.026;2022-12-20T05:54:05;49.35;;;19.23;;
52984;SDS011;40499;47.830;19.026;2022-12-20T05:56:31;43.42;;;18.65;;
52984;SDS011;40499;47.830;19.026;2022-12-20T05:58:56;49.92;;;19.30;;
52984;SDS011;40499;47.830;19.026;2022-12-20T06:01:23;45.97;;;19.50;;
52984;SDS011;40499;47.830;19.026;2022-12-20T06:03:48;37.22;;;16.88;;
52984;SDS011;40499;47.830;19.026;2022-12-20T06:06:16;43.90;;;18.75;;
52984;SDS011;40499;47.830;19.026;2022-12-20T06:08:42;47.38;;;18.98;;
52984;SDS011;40499;47.830;19.026;2022-12-20T06:11:07;46.67;;;19.00;;
52984;SDS011;40499;47.830;19.026;2022-12-20T06:13:33;41.30;;;17.00;;
52984;SDS011;40499;47.830;19.026;2022-12-20T06:15:58;50.88;;;19.60;;
52984;SDS011;40499;47.830;19.026;2022-12-20T06:18:25;47.17;;;20.20;;
52984;SDS011;40499;47.830;19.026;2022-12-20T06:20:50;47.92;;;17.92;;
52984;SDS011;40499;47.830;19.026;2022-12-20T06:26:01;44.35;;;18.35;;
52984;SDS011;40499;47.830;19.026;2022-12-20T06:28:28;43.40;;;16.55;;
52984;SDS011;40499;47.830;19.026;2022-12-20T06:30:54;51.25;;;22.15;;
52984;SDS011;40499;47.830;19.026;2022-12-20T06:33:19;46.13;;;19.58;;
52984;SDS011;40499;47.830;19.026;2022-12-20T06:35:45;53.55;;;20.23;;
52984;SDS011;40499;47.830;19.026;2022-12-20T06:38:10;50.45;;;20.27;;
52984;SDS011;40499;47.830;19.026;2022-12-20T06:40:36;54.25;;;21.42;;
52984;SDS011;40499;47.830;19.026;2022-12-20T06:43:01;41.30;;;17.15;;
52984;SDS011;40499;47.830;19.026;2022-12-20T06:45:26;49.08;;;19.52;;
52984;SDS011;40499;47.830;19.026;2022-12-20T06:47:52;51.67;;;21.13;;
52984;SDS011;40499;47.830;19.026;2022-12-20T06:50:17;53.55;;;21.85;;
52984;SDS011;40499;47.830;19.026;2022-12-20T06:52:42;48.70;;;18.73;;
52984;SDS011;40499;47.830;19.026;2022-12-20T06:55:08;49.85;;;19.52;;
52984;SDS011;40499;47.830;19.026;2022-12-20T06:57:33;50.15;;;20.90;;
52984;SDS011;40499;47.830;19.026;2022-12-20T06:59:58;51.70;;;20.70;;
52984;SDS011;40499;47.830;19.026;2022-12-20T07:02:23;53.85;;;21.00;;
52984;SDS011;40499;47.830;19.026;2022-12-20T07:04:49;46.63;;;20.02;;
52984;SDS011;40499;47.830;19.026;2022-12-20T07:07:15;46.28;;;19.00;;
52984;SDS011;40499;47.830;19.026;2022-12-20T07:09:41;44.78;;;19.95;;
52984;SDS011;40499;47.830;19.026;2022-12-20T07:12:07;47.00;;;19.48;;
52984;SDS011;40499;47.830;19.026;2022-12-20T07:14:32;51.78;;;21.77;;
52984;SDS011;40499;47.830;19.026;2022-12-20T07:16:58;39.50;;;18.33;;
52984;SDS011;40499;47.830;19.026;2022-12-20T07:19:24;47.33;;;19.23;;
52984;SDS011;40499;47.830;19.026;2022-12-20T07:21:49;54.95;;;23.05;;
52984;SDS011;40499;47.830;19.026;2022-12-20T07:24:14;49.83;;;23.85;;
52984;SDS011;40499;47.830;19.026;2022-12-20T07:26:39;49.15;;;20.23;;
52984;SDS011;40499;47.830;19.026;2022-12-20T07:29:05;52.45;;;20.38;;
52984;SDS011;40499;47.830;19.026;2022-12-20T07:31:30;48.28;;;21.73;;
52984;SDS011;40499;47.830;19.026;2022-12-20T07:33:57;54.92;;;21.55;;
52984;SDS011;40499;47.830;19.026;2022-12-20T07:36:23;54.35;;;21.92;;
52984;SDS011;40499;47.830;19.026;2022-12-20T07:38:49;55.88;;;24.70;;
52984;SDS011;40499;47.830;19.026;2022-12-20T07:41:16;51.05;;;21.45;;
52984;SDS011;40499;47.830;19.026;2022-12-20T07:43:42;49.78;;;21.48;;
52984;SDS011;40499;47.830;19.026;2022-12-20T07:46:09;51.15;;;22.08;;
52984;SDS011;40499;47.830;19.026;2022-12-20T07:48:35;44.83;;;19.27;;
52984;SDS011;40499;47.830;19.026;2022-12-20T07:51:02;50.75;;;21.35;;
52984;SDS011;40499;47.830;19.026;2022-12-20T07:53:29;53.60;;;24.38;;
52984;SDS011;40499;47.830;19.026;2022-12-20T07:55:56;68.82;;;26.92;;
52984;SDS011;40499;47.830;19.026;2022-12-20T07:58:22;52.50;;;21.15;;
52984;SDS011;40499;47.830;19.026;2022-12-20T08:00:48;43.97;;;17.90;;
52984;SDS011;40499;47.830;19.026;2022-12-20T08:05:39;44.23;;;19.93;;
52984;SDS011;40499;47.830;19.026;2022-12-20T08:08:06;47.35;;;19.40;;
52984;SDS011;40499;47.830;19.026;2022-12-20T08:10:32;54.15;;;20.52;;
52984;SDS011;40499;47.830;19.026;2022-12-20T08:12:57;54.58;;;23.02;;
52984;SDS011;40499;47.830;19.026;2022-12-20T08:15:23;47.60;;;19.02;;
52984;SDS011;40499;47.830;19.026;2022-12-20T08:17:49;47.45;;;19.20;;
52984;SDS011;40499;47.830;19.026;2022-12-20T08:20:15;45.55;;;19.20;;
52984;SDS011;40499;47.830;19.026;2022-12-20T08:22:41;48.53;;;18.92;;
52984;SDS011;40499;47.830;19.026;2022-12-20T08:25:06;43.42;;;18.55;;
52984;SDS011;40499;47.830;19.026;2022-12-20T08:27:32;41.45;;;18.35;;
52984;SDS011;40499;47.830;19.026;2022-12-20T08:29:57;44.78;;;18.25;;
52984;SDS011;40499;47.830;19.026;2022-12-20T08:32:23;47.63;;;21.30;;
52984;SDS011;40499;47.830;19.026;2022-12-20T08:34:48;44.58;;;18.55;;
52984;SDS011;40499;47.830;19.026;2022-12-20T08:37:16;33.72;;;14.05;;
52984;SDS011;40499;47.830;19.026;2022-12-20T08:39:42;39.10;;;15.20;;
52984;SDS011;40499;47.830;19.026;2022-12-20T08:42:07;40.53;;;16.92;;
52984;SDS011;40499;47.830;19.026;2022-12-20T08:44:32;32.95;;;13.27;;
52984;SDS011;40499;47.830;19.026;2022-12-20T08:46:58;43.50;;;19.00;;
52984;SDS011;40499;47.830;19.026;2022-12-20T08:49:23;37.38;;;16.55;;
52984;SDS011;40499;47.830;19.026;2022-12-20T08:51:49;38.05;;;18.80;;
52984;SDS011;40499;47.830;19.026;2022-12-20T08:54:14;42.20;;;18.98;;
52984;SDS011;40499;47.830;19.026;2022-12-20T08:56:39;38.13;;;16.65;;
52984;SDS011;40499;47.830;19.026;2022-12-20T08:59:04;43.70;;;16.77;;
52984;SDS011;40499;47.830;19.026;2022-12-20T09:01:30;40.08;;;17.60;;
52984;SDS011;40499;47.830;19.026;2022-12-20T09:03:57;39.83;;;16.67;;
52984;SDS011;40499;47.830;19.026;2022-12-20T09:06:22;48.13;;;19.25;;
52984;SDS011;40499;47.830;19.026;2022-12-20T09:08:48;47.63;;;23.77;;
52984;SDS011;40499;47.830;19.026;2022-12-20T09:11:14;49.08;;;23.83;;
52984;SDS011;40499;47.830;19.026;2022-12-20T09:13:42;38.70;;;16.92;;
52984;SDS011;40499;47.830;19.026;2022-12-20T09:16:08;41.42;;;17.33;;
52984;SDS011;40499;47.830;19.026;2022-12-20T09:18:33;42.28;;;18.48;;
52984;SDS011;40499;47.830;19.026;2022-12-20T09:21:02;37.63;;;17.40;;
52984;SDS011;40499;47.830;19.026;2022-12-20T09:23:28;41.22;;;18.13;;
52984;SDS011;40499;47.830;19.026;2022-12-20T09:25:54;39.38;;;17.67;;
52984;SDS011;40499;47.830;19.026;2022-12-20T09:28:19;44.25;;;16.80;;
52984;SDS011;40499;47.830;19.026;2022-12-20T09:30:45;38.50;;;18.02;;
52984;SDS011;40499;47.830;19.026;2022-12-20T09:33:10;35.25;;;15.00;;
52984;SDS011;40499;47.830;19.026;2022-12-20T09:35:35;41.40;;;17.58;;
52984;SDS011;40499;47.830;19.026;2022-12-20T09:38:01;40.58;;;17.05;;
52984;SDS011;40499;47.830;19.026;2022-12-20T09:40:28;42.55;;;18.25;;
52984;SDS011;40499;47.830;19.026;2022-12-20T09:42:54;41.60;;;16.38;;
52984;SDS011;40499;47.830;19.026;2022-12-20T09:45:29;40.20;;;16.30;;
52984;SDS011;40499;47.830;19.026;2022-12-20T09:47:56;40.65;;;17.85;;
52984;SDS011;40499;47.830;19.026;2022-12-20T09:50:31;35.65;;;17.13;;
52984;SDS011;40499;47.830;19.026;2022-12-20T09:55:33;40.00;;;18.77;;
52984;SDS011;40499;47.830;19.026;2022-12-20T10:00:43;38.33;;;16.67;;
52984;SDS011;40499;47.830;19.026;2022-12-20T10:03:13;37.47;;;16.27;;
52984;SDS011;40499;47.830;19.026;2022-12-20T10:05:47;39.65;;;18.33;;
52984;SDS011;40499;47.830;19.026;2022-12-20T10:10:50;39.70;;;15.32;;
52984;SDS011;40499;47.830;19.026;2022-12-20T10:13:26;37.42;;;16.45;;
52984;SDS011;40499;47.830;19.026;2022-12-20T10:26:12;32.35;;;15.60;;
52984;SDS011;40499;47.830;19.026;2022-12-20T10:28:38;31.50;;;12.48;;
52984;SDS011;40499;47.830;19.026;2022-12-20T10:31:11;40.50;;;17.48;;
52984;SDS011;40499;47.830;19.026;2022-12-20T10:33:37;36.83;;;15.75;;
52984;SDS011;40499;47.830;19.026;2022-12-20T10:38:50;36.88;;;15.65;;
52984;SDS011;40499;47.830;19.026;2022-12-20T10:41:17;35.85;;;16.45;;
52984;SDS011;40499;47.830;19.026;2022-12-20T10:44:15;45.20;;;19.42;;
52984;SDS011;40499;47.830;19.026;2022-12-20T10:46:45;35.63;;;15.98;;
52984;SDS011;40499;47.830;19.026;2022-12-20T10:51:51;39.50;;;15.80;;
52984;SDS011;40499;47.830;19.026;2022-12-20T10:54:24;35.60;;;16.88;;
52984;SDS011;40499;47.830;19.026;2022-12-20T10:56:56;36.75;;;16.30;;
52984;SDS011;40499;47.830;19.026;2022-12-20T10:59:26;39.58;;;17.05;;
52984;SDS011;40499;47.830;19.026;2022-12-20T11:01:52;40.47;;;18.13;;
52984;SDS011;40499;47.830;19.026;2022-12-20T11:07:24;38.15;;;17.23;;
52984;SDS011;40499;47.830;19.026;2022-12-20T11:09:51;36.08;;;15.98;;
52984;SDS011;40499;47.830;19.026;2022-12-20T11:12:18;31.30;;;14.98;;
52984;SDS011;40499;47.830;19.026;2022-12-20T11:14:44;42.83;;;20.02;;
52984;SDS011;40499;47.830;19.026;2022-12-20T11:22:24;49.42;;;19.92;;
52984;SDS011;40499;47.830;19.026;2022-12-20T11:35:12;31.33;;;15.02;;
52984;SDS011;40499;47.830;19.026;2022-12-20T11:37:48;35.47;;;15.50;;
52984;SDS011;40499;47.830;19.026;2022-12-20T11:45:24;40.57;;;18.70;;
52984;SDS011;40499;47.830;19.026;2022-12-20T11:53:25;38.55;;;16.88;;
52984;SDS011;40499;47.830;19.026;2022-12-20T11:55:52;37.00;;;16.38;;
52984;SDS011;40499;47.830;19.026;2022-12-20T11:58:21;37.35;;;15.90;;
52984;SDS011;40499;47.830;19.026;2022-12-20T12:00:55;36.58;;;16.05;;
52984;SDS011;40499;47.830;19.026;2022-12-20T12:03:25;37.40;;;15.70;;
52984;SDS011;40499;47.830;19.026;2022-12-20T12:05:52;36.22;;;16.80;;
52984;SDS011;40499;47.830;19.026;2022-12-20T12:08:20;34.80;;;15.38;;
52984;SDS011;40499;47.830;19.026;2022-12-20T12:11:21;30.77;;;14.02;;
52984;SDS011;40499;47.830;19.026;2022-12-20T12:13:39;37.40;;;15.20;;
52984;SDS011;40499;47.830;19.026;2022-12-20T12:18:42;37.08;;;15.98;;
52984;SDS011;40499;47.830;19.026;2022-12-20T12:21:17;32.00;;;14.13;;
52984;SDS011;40499;47.830;19.026;2022-12-20T12:28:40;31.75;;;15.02;;
52984;SDS011;40499;47.830;19.026;2022-12-20T12:31:06;35.53;;;15.15;;
52984;SDS011;40499;47.830;19.026;2022-12-20T12:33:36;36.33;;;15.93;;
52984;SDS011;40499;47.830;19.026;2022-12-20T12:38:52;32.70;;;14.73;;
52984;SDS011;40499;47.830;19.026;2022-12-20T12:41:25;36.42;;;15.45;;
52984;SDS011;40499;47.830;19.026;2022-12-20T12:43:56;36.30;;;16.10;;
52984;SDS011;40499;47.830;19.026;2022-12-20T12:46:25;33.15;;;14.48;;
52984;SDS011;40499;47.830;19.026;2022-12-20T12:48:54;32.63;;;13.57;;
52984;SDS011;40499;47.830;19.026;2022-12-20T12:51:22;33.60;;;15.63;;
52984;SDS011;40499;47.830;19.026;2022-12-20T12:53:50;32.40;;;14.38;;
52984;SDS011;40499;47.830;19.026;2022-12-20T13:11:52;33.65;;;14.48;;
52984;SDS011;40499;47.830;19.026;2022-12-20T13:16:50;41.60;;;16.38;;
52984;SDS011;40499;47.830;19.026;2022-12-20T13:21:56;38.35;;;15.50;;
52984;SDS011;40499;47.830;19.026;2022-12-20T13:29:50;35.22;;;15.13;;
52984;SDS011;40499;47.830;19.026;2022-12-20T13:35:00;33.08;;;14.73;;
52984;SDS011;40499;47.830;19.026;2022-12-20T13:37:26;31.48;;;14.57;;
52984;SDS011;40499;47.830;19.026;2022-12-20T13:39:51;30.70;;;14.88;;
52984;SDS011;40499;47.830;19.026;2022-12-20T13:42:21;29.75;;;14.60;;
52984;SDS011;40499;47.830;19.026;2022-12-20T13:44:50;32.92;;;15.05;;
52984;SDS011;40499;47.830;19.026;2022-12-20T13:49:42;35.22;;;15.07;;
52984;SDS011;40499;47.830;19.026;2022-12-20T13:54:44;37.05;;;15.60;;
52984;SDS011;40499;47.830;19.026;2022-12-20T13:57:13;34.95;;;15.70;;
52984;SDS011;40499;47.830;19.026;2022-12-20T13:59:44;32.03;;;15.95;;
52984;SDS011;40499;47.830;19.026;2022-12-20T14:02:12;37.30;;;16.48;;
52984;SDS011;40499;47.830;19.026;2022-12-20T14:04:42;37.65;;;16.85;;
52984;SDS011;40499;47.830;19.026;2022-12-20T14:07:08;39.33;;;18.58;;
52984;SDS011;40499;47.830;19.026;2022-12-20T14:09:37;37.97;;;16.60;;
52984;SDS011;40499;47.830;19.026;2022-12-20T14:12:14;38.65;;;17.70;;
52984;SDS011;40499;47.830;19.026;2022-12-20T14:14:48;37.42;;;16.40;;
52984;SDS011;40499;47.830;19.026;2022-12-20T14:17:27;35.25;;;15.90;;
52984;SDS011;40499;47.830;19.026;2022-12-20T14:22:37;41.17;;;17.92;;
52984;SDS011;40499;47.830;19.026;2022-12-20T14:25:05;38.03;;;17.60;;
52984;SDS011;40499;47.830;19.026;2022-12-20T14:27:33;39.67;;;18.67;;
52984;SDS011;40499;47.830;19.026;2022-12-20T14:29:59;43.25;;;18.02;;
52984;SDS011;40499;47.830;19.026;2022-12-20T14:32:25;46.97;;;19.23;;
52984;SDS011;40499;47.830;19.026;2022-12-20T14:34:50;39.92;;;18.25;;
52984;SDS011;40499;47.830;19.026;2022-12-20T14:42:20;41.47;;;18.25;;
52984;SDS011;40499;47.830;19.026;2022-12-20T14:44:46;38.53;;;18.20;;
52984;SDS011;40499;47.830;19.026;2022-12-20T14:47:15;40.08;;;18.55;;
52984;SDS011;40499;47.830;19.026;2022-12-20T14:49:46;37.90;;;17.80;;
52984;SDS011;40499;47.830;19.026;2022-12-20T14:52:13;47.10;;;19.73;;
52984;SDS011;40499;47.830;19.026;2022-12-20T14:54:42;44.05;;;19.05;;
52984;SDS011;40499;47.830;19.026;2022-12-20T14:57:19;40.03;;;18.63;;
52984;SDS011;40499;47.830;19.026;2022-12-20T14:59:55;44.45;;;19.83;;
52984;SDS011;40499;47.830;19.026;2022-12-20T15:02:34;44.47;;;20.02;;
52984;SDS011;40499;47.830;19.026;2022-12-20T15:05:05;37.28;;;18.35;;
52984;SDS011;40499;47.830;19.026;2022-12-20T15:07:31;47.30;;;19.63;;
52984;SDS011;40499;47.830;19.026;2022-12-20T15:09:56;45.88;;;19.55;;
52984;SDS011;40499;47.830;19.026;2022-12-20T15:12:22;46.22;;;20.25;;
52984;SDS011;40499;47.830;19.026;2022-12-20T15:14:48;46.67;;;19.73;;
52984;SDS011;40499;47.830;19.026;2022-12-20T15:17:13;45.92;;;20.20;;
52984;SDS011;40499;47.830;19.026;2022-12-20T15:19:40;50.17;;;21.27;;
52984;SDS011;40499;47.830;19.026;2022-12-20T15:22:05;47.42;;;20.42;;
52984;SDS011;40499;47.830;19.026;2022-12-20T15:24:37;45.88;;;21.15;;
52984;SDS011;40499;47.830;19.026;2022-12-20T15:27:02;45.67;;;20.52;;
52984;SDS011;40499;47.830;19.026;2022-12-20T15:29:27;42.83;;;19.75;;
52984;SDS011;40499;47.830;19.026;2022-12-20T15:32:03;45.78;;;19.92;;
52984;SDS011;40499;47.830;19.026;2022-12-20T15:34:31;44.47;;;19.98;;
52984;SDS011;40499;47.830;19.026;2022-12-20T15:36:57;41.45;;;18.40;;
52984;SDS011;40499;47.830;19.026;2022-12-20T15:39:24;42.83;;;19.27;;
52984;SDS011;40499;47.830;19.026;2022-12-20T15:41:49;50.50;;;21.52;;
52984;SDS011;40499;47.830;19.026;2022-12-20T15:44:16;51.17;;;21.58;;
52984;SDS011;40499;47.830;19.026;2022-12-20T15:46:41;54.47;;;22.65;;
52984;SDS011;40499;47.830;19.026;2022-12-20T15:49:30;48.78;;;22.25;;
52984;SDS011;40499;47.830;19.026;2022-12-20T15:51:53;48.53;;;21.20;;
52984;SDS011;40499;47.830;19.026;2022-12-20T15:54:29;47.83;;;21.40;;
52984;SDS011;40499;47.830;19.026;2022-12-20T15:59:19;68.07;;;29.88;;
52984;SDS011;40499;47.830;19.026;2022-12-20T16:01:45;60.40;;;28.45;;
52984;SDS011;40499;47.830;19.026;2022-12-20T16:04:12;53.17;;;27.40;;
52984;SDS011;40499;47.830;19.026;2022-12-20T16:06:38;53.00;;;24.88;;
52984;SDS011;40499;47.830;19.026;2022-12-20T16:09:03;56.67;;;27.20;;
52984;SDS011;40499;47.830;19.026;2022-12-20T16:11:29;52.45;;;22.98;;
52984;SDS011;40499;47.830;19.026;2022-12-20T16:13:55;56.17;;;23.23;;